Time;durP1;ratioP1;P1;durP2;ratioP2;P2;SDS_P1;SDS_P2;PMS_P1;PMS_P2;Temp;Humidity;BMP_temperature;BMP_pressure;BME280_temperature;BME280_humidity;BME280_pressure;Samples;Min_cycle;Max_cycle;Signal;HPM_P1;HPM_P2
2023/10/09 00:01:14;;;;;;;4.50;2.03;;;13.50;99.90;;;;;;5023557;28;20191;-55
2023/10/09 00:03:41;;;;;;;3.10;1.93;;;13.60;99.90;;;;;;5019501;28;20202;-54
2023/10/09 00:06:07;;;;;;;2.07;1.80;;;13.70;99.90;;;;;;5017202;28;20802;-54
2023/10/09 00:08:34;;;;;;;3.67;2.50;;;13.70;99.90;;;;;;5020573;28;20198;-54
2023/10/09 00:11:15;;;;;;;3.97;2.20;;;13.80;99.90;;;;;;5018357;28;20198;-54
2023/10/09 00:13:52;;;;;;;3.50;2.33;;;13.50;99.90;;;;;;5001076;28;20218;-54
2023/10/09 00:16:23;;;;;;;3.73;2.37;;;13.30;99.90;;;;;;5016899;28;20229;-55
2023/10/09 00:18:50;;;;;;;4.37;2.80;;;13.40;99.90;;;;;;5018865;28;20204;-55
2023/10/09 00:21:20;;;;;;;6.60;2.33;;;13.30;99.90;;;;;;5020298;28;20190;-56
2023/10/09 00:23:52;;;;;;;2.43;1.73;;;13.20;99.90;;;;;;5016907;28;20218;-54
2023/10/09 00:26:19;;;;;;;2.43;2.20;;;13.20;99.90;;;;;;5001098;28;20685;-57
2023/10/09 00:28:47;;;;;;;3.43;2.37;;;13.40;99.90;;;;;;5004373;28;20230;-55
2023/10/09 00:31:16;;;;;;;4.87;2.23;;;13.50;99.90;;;;;;5019551;28;20198;-55
2023/10/09 00:33:45;;;;;;;3.17;2.07;;;13.40;99.90;;;;;;5024371;28;20242;-62
2023/10/09 00:36:14;;;;;;;3.10;2.50;;;13.40;99.90;;;;;;5001324;28;20234;-61
2023/10/09 00:38:44;;;;;;;4.50;2.30;;;13.30;99.90;;;;;;5003164;28;20236;-59
2023/10/09 00:41:10;;;;;;;3.17;1.90;;;13.20;99.90;;;;;;5022380;28;21136;-55
2023/10/09 00:43:37;;;;;;;2.77;2.17;;;13.30;99.90;;;;;;5024536;28;20298;-54
2023/10/09 00:48:51;;;;;;;2.67;2.33;;;13.50;99.90;;;;;;5026233;28;20203;-54
2023/10/09 00:51:24;;;;;;;5.20;2.10;;;13.30;99.90;;;;;;5018481;28;20297;-54
2023/10/09 00:53:52;;;;;;;4.23;2.47;;;13.00;99.90;;;;;;5023341;28;20227;-54
2023/10/09 00:56:20;;;;;;;2.20;2.00;;;13.20;99.90;;;;;;5025561;28;20206;-55
2023/10/09 00:58:55;;;;;;;5.33;2.27;;;13.00;99.90;;;;;;5028112;28;20229;-54
2023/10/09 01:01:26;;;;;;;3.73;2.50;;;13.00;99.90;;;;;;5032904;28;20190;-54
2023/10/09 01:03:51;;;;;;;3.87;2.17;;;13.10;99.90;;;;;;5033396;28;20195;-55
2023/10/09 01:06:21;;;;;;;3.83;2.37;;;12.90;99.90;;;;;;5002787;28;20227;-54
2023/10/09 01:11:32;;;;;;;2.97;2.40;;;12.90;99.90;;;;;;5027383;28;20284;-54
2023/10/09 01:14:11;;;;;;;2.67;1.87;;;13.00;99.90;;;;;;5033173;28;20191;-54
2023/10/09 01:16:38;;;;;;;4.30;2.30;;;13.00;99.90;;;;;;5013158;28;20233;-59
2023/10/09 01:19:12;;;;;;;2.67;2.07;;;13.10;99.90;;;;;;5032522;28;20251;-55
2023/10/09 01:21:39;;;;;;;3.20;2.60;;;13.10;99.90;;;;;;5031922;28;20244;-55
2023/10/09 01:24:08;;;;;;;2.93;1.87;;;12.80;99.90;;;;;;5030601;28;20190;-55
2023/10/09 01:26:39;;;;;;;4.30;2.63;;;12.70;99.90;;;;;;5025258;28;20219;-55
2023/10/09 01:29:14;;;;;;;3.77;2.53;;;12.80;99.90;;;;;;5031439;28;20199;-55
2023/10/09 01:31:46;;;;;;;2.77;2.50;;;12.80;99.90;;;;;;5029375;28;20206;-54
2023/10/09 01:34:12;;;;;;;2.37;2.17;;;12.40;99.90;;;;;;5022773;28;20282;-54
2023/10/09 01:36:39;;;;;;;2.63;2.00;;;12.30;99.90;;;;;;5032417;28;20956;-53
2023/10/09 01:41:58;;;;;;;7.13;3.30;;;12.50;99.90;;;;;;5023275;28;20206;-54
2023/10/09 01:44:34;;;;;;;5.43;2.90;;;12.50;99.90;;;;;;5025633;28;20750;-54
2023/10/09 01:47:06;;;;;;;3.30;2.47;;;12.40;99.90;;;;;;5027153;28;20295;-54
2023/10/09 01:49:37;;;;;;;7.53;3.33;;;12.60;99.90;;;;;;5019914;28;20249;-53
2023/10/09 01:52:24;;;;;;;2.83;2.37;;;12.70;99.90;;;;;;5023120;28;20483;-54
2023/10/09 01:54:51;;;;;;;4.53;2.70;;;12.30;99.90;;;;;;5024145;28;20216;-55
2023/10/09 01:57:25;;;;;;;4.80;2.40;;;12.00;99.90;;;;;;5027496;28;20744;-54
2023/10/09 01:59:53;;;;;;;6.77;2.83;;;12.00;99.90;;;;;;5020733;28;20286;-54
2023/10/09 02:02:26;;;;;;;5.17;2.80;;;12.20;99.90;;;;;;5028492;28;20955;-55
2023/10/09 02:05:09;;;;;;;3.60;2.40;;;12.30;99.90;;;;;;5025674;28;20206;-55
2023/10/09 02:07:44;;;;;;;3.33;2.30;;;12.20;99.90;;;;;;5007420;28;20230;-54
2023/10/09 02:13:34;;;;;;;2.87;2.30;;;12.30;99.90;;;;;;5080217;23;20299;-55
2023/10/09 02:16:13;;;;;;;2.50;2.30;;;12.50;99.90;;;;;;5021840;28;21106;-55
2023/10/09 02:18:39;;;;;;;3.20;2.37;;;12.40;99.90;;;;;;5027467;28;20203;-55
2023/10/09 02:26:17;;;;;;;4.97;2.73;;;12.50;99.90;;;;;;5029433;28;20571;-58
2023/10/09 02:28:52;;;;;;;2.63;2.43;;;12.50;99.90;;;;;;5020565;28;20614;-58
2023/10/09 02:31:22;;;;;;;3.93;2.67;;;12.40;99.90;;;;;;5032727;28;20553;-56
2023/10/09 02:33:50;;;;;;;3.60;2.70;;;12.40;99.90;;;;;;5031149;28;20232;-57
2023/10/09 02:36:16;;;;;;;4.10;2.47;;;12.30;99.90;;;;;;5040538;28;20199;-57
2023/10/09 02:38:42;;;;;;;5.90;3.17;;;12.40;99.90;;;;;;5037382;28;20206;-55
2023/10/09 02:43:47;;;;;;;4.03;2.77;;;12.30;99.90;;;;;;5034152;28;21233;-57
2023/10/09 02:46:35;;;;;;;4.77;3.00;;;12.50;99.90;;;;;;5035621;28;20673;-54
2023/10/09 02:49:09;;;;;;;3.57;2.90;;;12.50;99.90;;;;;;5033954;28;20202;-54
2023/10/09 02:51:41;;;;;;;5.50;3.27;;;12.60;99.90;;;;;;5034191;28;20671;-54
2023/10/09 02:56:56;;;;;;;3.23;2.93;;;12.60;99.90;;;;;;5039706;28;20905;-55
2023/10/09 02:59:22;;;;;;;4.47;2.97;;;12.60;99.90;;;;;;5039332;28;20190;-54
2023/10/09 03:01:49;;;;;;;7.13;3.53;;;12.60;99.90;;;;;;5041897;28;20198;-55
2023/10/09 03:04:15;;;;;;;4.47;2.67;;;12.50;99.90;;;;;;5023913;28;20196;-55
2023/10/09 03:06:50;;;;;;;3.40;2.83;;;12.50;99.90;;;;;;5018490;28;21031;-54
2023/10/09 03:09:17;;;;;;;2.50;2.30;;;12.50;99.90;;;;;;5036268;28;20232;-53
2023/10/09 03:11:53;;;;;;;3.17;2.87;;;12.50;99.90;;;;;;5034093;28;20210;-53
2023/10/09 03:14:20;;;;;;;7.23;4.80;;;12.50;99.90;;;;;;5034516;28;20549;-54
2023/10/09 03:16:48;;;;;;;4.93;4.33;;;12.50;99.90;;;;;;5032587;28;20201;-54
2023/10/09 03:19:13;;;;;;;3.00;2.47;;;12.30;99.90;;;;;;5034457;28;20664;-54
2023/10/09 03:21:39;;;;;;;3.50;2.80;;;12.30;99.90;;;;;;5034196;28;20560;-55
2023/10/09 03:24:06;;;;;;;5.00;2.83;;;12.20;99.90;;;;;;5034402;28;20210;-60
2023/10/09 03:26:31;;;;;;;6.33;2.87;;;12.20;99.90;;;;;;5023827;28;20222;-61
2023/10/09 03:29:00;;;;;;;5.67;3.30;;;12.20;99.90;;;;;;5037961;28;20266;-61
2023/10/09 03:31:27;;;;;;;2.70;2.50;;;12.20;99.90;;;;;;5033957;28;20620;-60
2023/10/09 03:33:53;;;;;;;5.93;3.27;;;12.00;99.90;;;;;;5043827;28;20922;-57
2023/10/09 03:36:18;;;;;;;2.93;2.50;;;12.20;99.90;;;;;;5038250;28;20202;-60
2023/10/09 03:38:44;;;;;;;3.47;3.17;;;12.10;99.90;;;;;;5019482;28;20767;-60
2023/10/09 03:41:12;;;;;;;6.43;3.30;;;12.30;99.90;;;;;;5038593;28;20199;-60
2023/10/09 03:43:42;;;;;;;4.43;3.00;;;12.20;99.90;;;;;;5027916;28;20190;-56
2023/10/09 03:46:20;;;;;;;4.03;2.60;;;12.00;99.90;;;;;;5014126;28;20284;-53
2023/10/09 03:48:47;;;;;;;4.87;2.80;;;12.00;99.90;;;;;;5026012;28;20700;-53
2023/10/09 03:51:20;;;;;;;3.67;3.33;;;12.20;99.90;;;;;;5032651;28;20229;-53
2023/10/09 03:53:47;;;;;;;5.33;2.80;;;12.00;99.90;;;;;;5047287;28;20748;-59
2023/10/09 03:56:12;;;;;;;3.83;3.27;;;12.00;99.90;;;;;;5033088;28;20195;-59
2023/10/09 03:58:43;;;;;;;3.90;2.40;;;12.10;99.90;;;;;;5033485;28;20206;-60
2023/10/09 04:03:48;;;;;;;5.23;3.03;;;12.00;99.90;;;;;;5028409;28;20206;-55
2023/10/09 04:06:14;;;;;;;7.47;2.90;;;12.10;99.90;;;;;;5032069;28;20229;-54
2023/10/09 04:08:47;;;;;;;3.37;2.23;;;11.70;99.90;;;;;;5027295;28;20272;-55
2023/10/09 04:11:16;;;;;;;2.73;2.40;;;11.40;99.90;;;;;;5026911;28;20205;-56
2023/10/09 04:13:49;;;;;;;3.60;2.67;;;11.40;99.90;;;;;;5036292;28;20233;-56
2023/10/09 04:16:33;;;;;;;3.50;2.93;;;11.50;99.90;;;;;;5037882;28;20198;-56
2023/10/09 04:19:06;;;;;;;3.07;2.40;;;11.30;99.90;;;;;;5035263;28;20235;-56
2023/10/09 04:21:35;;;;;;;6.23;4.83;;;11.30;99.90;;;;;;5033812;28;20948;-56
2023/10/09 04:26:45;;;;;;;4.87;2.47;;;11.60;99.90;;;;;;5030633;28;20235;-56
2023/10/09 04:29:26;;;;;;;3.63;2.60;;;11.50;99.90;;;;;;5033404;28;20198;-54
2023/10/09 04:31:56;;;;;;;3.23;2.43;;;11.70;99.90;;;;;;5036486;28;20314;-54
2023/10/09 04:37:00;;;;;;;3.70;2.40;;;12.00;99.90;;;;;;5036152;28;21018;-55
2023/10/09 04:44:39;;;;;;;4.67;2.97;;;12.20;99.90;;;;;;5026591;28;20235;-56
2023/10/09 04:50:01;;;;;;;4.33;2.63;;;11.90;99.90;;;;;;5029304;28;20273;-54
2023/10/09 05:08:28;;;;;;;3.60;2.50;;;12.10;99.90;;;;;;5031618;28;20213;-55
2023/10/09 05:16:28;;;;;;;3.37;2.67;;;12.10;99.90;;;;;;5035710;28;20199;-55
2023/10/09 05:18:56;;;;;;;2.70;2.50;;;12.00;99.90;;;;;;5032394;28;20207;-54
2023/10/09 05:24:15;;;;;;;3.00;2.73;;;11.90;99.90;;;;;;5036709;28;20244;-54
2023/10/09 05:29:59;;;;;;;4.20;2.47;;;11.80;99.90;;;;;;5038660;28;20195;-55
2023/10/09 05:32:15;;;;;;;2.60;2.40;;;11.70;99.90;;;;;;5028083;28;20213;-54
2023/10/09 05:37:32;;;;;;;8.20;3.37;;;11.80;99.90;;;;;;5036101;28;20247;-55
2023/10/09 05:40:22;;;;;;;3.33;3.00;;;11.80;99.90;;;;;;5019935;28;20205;-55
2023/10/09 05:42:57;;;;;;;4.60;2.70;;;12.00;99.90;;;;;;5029017;28;20201;-55
2023/10/09 05:48:48;;;;;;;3.77;3.10;;;12.10;99.90;;;;;;5030389;28;20274;-56
2023/10/09 05:51:12;;;;;;;3.50;2.40;;;12.00;99.90;;;;;;5029703;28;20198;-56
2023/10/09 05:57:44;;;;;;;3.97;2.60;;;12.20;99.90;;;;;;5033782;28;20234;-54
2023/10/09 06:04:49;;;;;;;3.97;2.70;;;12.30;99.90;;;;;;5047177;28;20260;-55
2023/10/09 06:07:22;;;;;;;3.33;2.87;;;12.10;99.90;;;;;;5037716;28;20215;-55
2023/10/09 06:09:52;;;;;;;3.90;3.00;;;12.00;99.90;;;;;;5037336;28;20187;-54
2023/10/09 06:12:33;;;;;;;4.93;2.47;;;11.90;99.90;;;;;;5043638;28;20304;-55
2023/10/09 06:15:18;;;;;;;5.13;2.60;;;11.90;99.90;;;;;;5037618;28;20226;-55
2023/10/09 06:17:50;;;;;;;3.20;2.90;;;11.70;99.90;;;;;;5041487;28;20205;-56
2023/10/09 06:23:15;;;;;;;3.23;2.50;;;11.80;99.90;;;;;;5040414;28;20191;-56
2023/10/09 06:25:50;;;;;;;4.90;2.40;;;11.90;99.90;;;;;;5038043;28;20229;-55
2023/10/09 06:28:18;;;;;;;3.57;2.63;;;11.90;99.90;;;;;;5041607;28;20257;-55
2023/10/09 06:30:46;;;;;;;2.43;2.20;;;11.70;99.90;;;;;;5049236;28;20205;-54
2023/10/09 06:33:29;;;;;;;3.77;2.67;;;11.70;99.90;;;;;;5041707;28;20277;-55
2023/10/09 06:35:54;;;;;;;2.60;2.40;;;11.60;99.90;;;;;;5045544;28;20201;-55
2023/10/09 06:38:33;;;;;;;3.93;2.93;;;11.50;99.90;;;;;;5050297;28;20255;-55
2023/10/09 06:43:31;;;;;;;7.30;2.87;;;11.60;99.90;;;;;;5043170;28;20194;-55
2023/10/09 06:45:58;;;;;;;3.90;2.90;;;11.40;99.90;;;;;;5047047;28;20651;-55
2023/10/09 06:51:15;;;;;;;2.80;2.50;;;11.00;99.90;;;;;;5042937;28;20769;-54
2023/10/09 06:59:21;;;;;;;3.70;2.87;;;11.10;99.90;;;;;;5031234;28;20194;-54
2023/10/09 07:01:51;;;;;;;3.63;2.63;;;11.50;99.90;;;;;;5033140;28;20194;-55
2023/10/09 07:04:19;;;;;;;4.07;3.00;;;11.30;99.90;;;;;;5037331;28;20674;-55
2023/10/09 07:16:57;;;;;;;3.43;3.13;;;11.60;99.90;;;;;;5044415;28;20660;-59
2023/10/09 07:22:03;;;;;;;3.20;2.80;;;12.10;99.90;;;;;;5038936;28;20758;-59
2023/10/09 07:24:43;;;;;;;2.87;2.47;;;11.60;99.90;;;;;;5025830;28;20205;-58
2023/10/09 07:27:14;;;;;;;4.13;2.50;;;11.70;99.90;;;;;;5035837;28;20242;-53
2023/10/09 07:29:49;;;;;;;4.87;3.33;;;11.60;99.90;;;;;;5033475;28;20197;-53
2023/10/09 07:32:21;;;;;;;3.03;2.73;;;11.70;99.90;;;;;;5042809;28;20629;-54
2023/10/09 07:34:53;;;;;;;3.47;3.17;;;11.90;99.90;;;;;;5044155;28;20200;-54
2023/10/09 07:37:23;;;;;;;4.43;3.27;;;11.50;99.90;;;;;;5044231;28;20618;-54
2023/10/09 07:39:56;;;;;;;4.67;3.00;;;11.60;99.90;;;;;;5040457;28;20250;-54
2023/10/09 07:42:52;;;;;;;4.33;3.07;;;12.00;99.90;;;;;;5042135;28;20209;-55
2023/10/09 07:45:54;;;;;;;3.70;2.77;;;11.60;99.90;;;;;;5029691;28;20204;-55
2023/10/09 07:50:38;;;;;;;3.93;3.60;;;11.50;99.90;;;;;;5044207;28;20197;-54
2023/10/09 07:53:26;;;;;;;7.53;3.93;;;11.80;99.90;;;;;;5033721;28;20179;-54
2023/10/09 07:55:58;;;;;;;6.30;3.50;;;11.60;99.90;;;;;;5041092;28;20208;-54
2023/10/09 07:58:28;;;;;;;7.80;3.33;;;11.50;99.90;;;;;;5025679;28;20430;-56
2023/10/09 08:03:24;;;;;;;5.37;4.27;;;11.50;99.90;;;;;;5047505;28;21074;-60
2023/10/09 08:05:52;;;;;;;5.40;3.57;;;11.60;99.90;;;;;;5032849;28;20243;-60
2023/10/09 08:08:39;;;;;;;6.33;3.27;;;11.70;99.90;;;;;;5051544;28;20202;-58
2023/10/09 08:13:56;;;;;;;4.00;3.60;;;11.70;99.90;;;;;;5046963;28;20229;-61
2023/10/09 08:16:24;;;;;;;4.33;3.30;;;11.60;99.90;;;;;;5026271;28;20878;-60
2023/10/09 08:18:51;;;;;;;4.53;3.23;;;12.00;99.90;;;;;;5048506;28;20195;-59
2023/10/09 08:21:19;;;;;;;4.23;3.80;;;12.20;99.90;;;;;;5046404;28;20655;-60
2023/10/09 08:23:48;;;;;;;3.37;3.07;;;12.10;99.90;;;;;;5048288;28;20190;-63
2023/10/09 08:26:14;;;;;;;5.27;4.03;;;12.00;99.90;;;;;;5043655;28;20684;-64
2023/10/09 08:28:45;;;;;;;6.33;3.27;;;12.30;99.90;;;;;;5044140;28;20191;-57
2023/10/09 08:33:58;;;;;;;5.93;3.80;;;12.50;99.90;;;;;;5050236;28;20280;-85
2023/10/09 08:36:36;;;;;;;3.70;3.37;;;12.40;99.90;;;;;;5048852;28;20190;-59
2023/10/09 08:39:25;;;;;;;4.20;3.80;;;12.30;99.90;;;;;;5036489;28;20192;-59
2023/10/09 08:41:54;;;;;;;5.47;4.00;;;12.10;99.90;;;;;;5048349;28;20210;-59
2023/10/09 08:44:25;;;;;;;5.80;4.13;;;12.30;99.90;;;;;;5038443;28;20860;-56
2023/10/09 08:46:50;;;;;;;4.57;3.80;;;12.50;99.90;;;;;;5045652;28;20217;-58
2023/10/09 08:49:18;;;;;;;6.23;3.80;;;12.30;99.90;;;;;;5029737;28;20193;-58
2023/10/09 08:51:46;;;;;;;6.70;3.67;;;11.90;99.90;;;;;;5019163;28;20217;-58
2023/10/09 08:54:14;;;;;;;3.87;3.47;;;11.90;99.90;;;;;;5037354;28;20278;-60
2023/10/09 08:56:49;;;;;;;5.80;3.90;;;11.90;99.90;;;;;;5033698;28;20775;-55
2023/10/09 08:59:18;;;;;;;6.00;3.87;;;11.80;99.90;;;;;;5016621;28;20812;-55
2023/10/09 09:01:51;;;;;;;7.40;3.77;;;11.80;99.90;;;;;;5036183;28;20193;-58
2023/10/09 09:04:38;;;;;;;4.23;3.83;;;12.00;99.90;;;;;;5035213;28;20195;-57
2023/10/09 09:07:04;;;;;;;3.90;3.30;;;12.20;99.90;;;;;;5031285;28;20210;-55
2023/10/09 09:09:32;;;;;;;4.53;3.30;;;12.30;99.90;;;;;;5019456;28;20190;-56
2023/10/09 09:11:59;;;;;;;4.57;3.50;;;12.20;99.90;;;;;;5032823;28;20776;-54
2023/10/09 09:14:37;;;;;;;5.47;3.57;;;12.30;99.90;;;;;;5043289;28;20237;-65
2023/10/09 09:17:05;;;;;;;6.13;3.63;;;12.50;99.90;;;;;;5040478;28;20200;-57
2023/10/09 09:19:32;;;;;;;5.43;3.27;;;12.60;99.90;;;;;;5034150;28;20240;-57
2023/10/09 09:22:11;;;;;;;3.63;3.07;;;12.50;99.90;;;;;;5039806;28;20197;-59
2023/10/09 09:24:37;;;;;;;4.93;3.77;;;12.10;99.90;;;;;;5040421;28;20219;-58
2023/10/09 09:27:09;;;;;;;5.23;3.87;;;12.00;99.90;;;;;;5036154;28;20243;-57
2023/10/09 09:29:38;;;;;;;5.17;3.40;;;12.00;99.90;;;;;;5018951;28;20688;-57
2023/10/09 09:32:18;;;;;;;4.77;3.63;;;11.90;99.90;;;;;;5039722;28;20198;-57
2023/10/09 09:35:04;;;;;;;7.43;3.07;;;12.00;99.90;;;;;;5021738;28;20200;-58
2023/10/09 09:37:51;;;;;;;3.63;3.27;;;12.20;99.90;;;;;;5035612;28;20201;-59
2023/10/09 09:40:30;;;;;;;6.40;3.73;;;12.40;99.90;;;;;;5018713;28;20198;-58
2023/10/09 09:43:06;;;;;;;3.83;3.13;;;13.00;99.90;;;;;;5034533;28;20205;-61
2023/10/09 09:45:35;;;;;;;3.83;3.47;;;13.10;99.90;;;;;;5011962;28;20845;-63
2023/10/09 09:48:13;;;;;;;3.50;3.10;;;12.90;99.90;;;;;;5031622;28;20562;-61
2023/10/09 09:50:44;;;;;;;4.77;4.10;;;12.80;99.90;;;;;;5027968;28;20204;-66
2023/10/09 09:53:16;;;;;;;7.47;3.57;;;12.80;99.90;;;;;;5022027;28;20198;-59
2023/10/09 09:55:51;;;;;;;5.50;3.70;;;12.60;99.90;;;;;;5039100;28;20237;-58
2023/10/09 09:58:23;;;;;;;4.77;3.87;;;12.50;99.90;;;;;;5033601;28;20198;-66
2023/10/09 10:00:55;;;;;;;7.20;4.37;;;12.50;99.90;;;;;;5029777;28;20207;-70
2023/10/09 10:03:33;;;;;;;6.20;4.13;;;12.30;99.90;;;;;;5041823;28;20200;-58
2023/10/09 10:06:04;;;;;;;5.27;4.50;;;12.30;99.90;;;;;;5034853;28;20252;-58
2023/10/09 10:08:33;;;;;;;4.10;3.70;;;12.40;99.90;;;;;;5031551;28;20203;-57
2023/10/09 10:11:05;;;;;;;4.87;4.37;;;12.50;99.90;;;;;;5032902;28;20674;-55
2023/10/09 10:13:43;;;;;;;7.17;4.77;;;12.40;99.90;;;;;;5035828;28;20937;-56
2023/10/09 10:16:12;;;;;;;5.97;4.50;;;12.10;99.90;;;;;;5029776;28;20698;-57
2023/10/09 10:21:40;;;;;;;5.87;4.17;;;11.90;99.90;;;;;;5030292;28;20202;-57
2023/10/09 10:24:28;;;;;;;6.10;5.37;;;12.00;99.90;;;;;;5014418;28;20203;-66
2023/10/09 10:27:23;;;;;;;5.97;4.00;;;11.80;99.90;;;;;;5031062;28;20215;-64
2023/10/09 10:30:12;;;;;;;4.93;4.53;;;11.90;99.90;;;;;;5034331;28;20206;-66
2023/10/09 10:32:58;;;;;;;5.77;5.20;;;11.90;99.90;;;;;;5031014;28;20672;-58
2023/10/09 10:35:39;;;;;;;5.73;4.90;;;12.10;99.90;;;;;;5019397;28;20205;-54
2023/10/09 10:38:49;;;;;;;6.03;4.90;;;12.20;99.90;;;;;;5028995;28;20213;-55
2023/10/09 10:41:19;;;;;;;5.77;5.17;;;12.20;99.90;;;;;;4924414;28;20784;-63
2023/10/09 10:43:54;;;;;;;5.93;5.33;;;12.30;99.90;;;;;;4907589;28;20229;-59
2023/10/09 10:46:32;;;;;;;6.93;5.73;;;12.20;99.90;;;;;;4987213;28;20260;-56
2023/10/09 10:51:39;;;;;;;8.97;6.60;;;12.30;99.90;;;;;;5025695;28;20218;-56
2023/10/09 10:56:51;;;;;;;5.40;4.90;;;12.10;99.90;;;;;;5036069;28;20317;-63
2023/10/09 10:59:25;;;;;;;5.93;5.03;;;12.10;99.90;;;;;;5013309;28;20187;-61
2023/10/09 11:01:53;;;;;;;7.70;5.40;;;12.00;99.90;;;;;;5010180;28;20595;-62
2023/10/09 11:04:38;;;;;;;5.67;5.17;;;12.30;99.90;;;;;;5031049;28;20213;-61
2023/10/09 11:07:12;;;;;;;6.13;5.10;;;12.40;99.90;;;;;;5036925;28;20221;-60
2023/10/09 11:10:27;;;;;;;6.93;5.80;;;12.40;99.90;;;;;;5037387;28;20201;-56
2023/10/09 11:12:55;;;;;;;5.90;5.30;;;12.00;99.90;;;;;;5042775;28;20692;-55
2023/10/09 11:15:44;;;;;;;6.83;4.97;;;12.20;99.90;;;;;;5037156;28;20218;-56
2023/10/09 11:18:20;;;;;;;6.50;5.90;;;12.40;99.90;;;;;;5043056;28;20196;-54
2023/10/09 11:23:53;;;;;;;7.57;6.03;;;12.20;99.90;;;;;;5041506;28;21013;-59
2023/10/09 11:26:28;;;;;;;6.17;5.57;;;12.10;99.90;;;;;;5042338;28;20982;-64
2023/10/09 11:29:16;;;;;;;6.20;5.00;;;12.30;99.90;;;;;;5038946;28;20207;-54
2023/10/09 11:32:03;;;;;;;6.50;5.67;;;12.20;99.90;;;;;;5039732;28;20209;-54
2023/10/09 11:34:29;;;;;;;6.60;6.00;;;12.50;99.90;;;;;;5044255;28;20317;-56
2023/10/09 11:37:15;;;;;;;6.43;5.83;;;12.40;99.90;;;;;;5038560;28;20293;-57
2023/10/09 11:39:50;;;;;;;6.50;5.87;;;12.60;99.90;;;;;;5037863;28;20459;-55
2023/10/09 11:45:19;;;;;;;7.03;5.77;;;12.80;99.90;;;;;;5037726;28;20229;-54
2023/10/09 11:48:00;;;;;;;7.00;6.23;;;12.70;99.90;;;;;;5044384;28;20237;-56
2023/10/09 11:51:18;;;;;;;7.13;6.27;;;13.00;99.90;;;;;;5039714;28;20683;-55
2023/10/09 11:53:54;;;;;;;7.10;6.50;;;13.30;99.90;;;;;;5041626;28;20202;-65
2023/10/09 11:56:22;;;;;;;8.43;7.63;;;13.40;99.90;;;;;;5039977;28;20591;-56
2023/10/09 11:58:49;;;;;;;9.23;6.97;;;13.10;99.90;;;;;;5020976;28;20206;-56
2023/10/09 12:01:22;;;;;;;8.10;7.03;;;12.90;99.90;;;;;;5028322;28;20203;-56
2023/10/09 12:03:53;;;;;;;6.80;6.20;;;12.90;99.90;;;;;;5028438;28;20191;-56
2023/10/09 12:06:23;;;;;;;7.53;5.93;;;13.20;99.90;;;;;;5023205;28;20223;-56
2023/10/09 12:08:49;;;;;;;8.70;7.10;;;13.00;99.90;;;;;;5024042;28;20200;-57
2023/10/09 12:11:22;;;;;;;6.00;5.50;;;13.10;99.90;;;;;;5004933;28;20563;-64
2023/10/09 12:13:56;;;;;;;10.00;7.07;;;12.90;99.90;;;;;;5040473;28;20272;-55
2023/10/09 12:16:27;;;;;;;7.70;6.93;;;13.10;99.90;;;;;;5038461;28;20194;-56
2023/10/09 12:18:54;;;;;;;7.80;6.77;;;13.40;99.90;;;;;;5030938;28;20191;-56
2023/10/09 12:21:21;;;;;;;7.90;7.10;;;13.50;99.90;;;;;;5034301;28;20187;-55
2023/10/09 12:23:47;;;;;;;8.63;7.73;;;12.80;99.90;;;;;;5036066;28;20298;-57
2023/10/09 12:28:49;;;;;;;11.63;7.40;;;12.80;99.90;;;;;;4851759;26;20584;-55
2023/10/09 12:31:19;;;;;;;7.93;7.13;;;13.00;99.90;;;;;;5027899;28;20633;-54
2023/10/09 12:33:46;;;;;;;8.83;7.43;;;12.70;99.90;;;;;;5024960;28;21106;-57
2023/10/09 12:36:19;;;;;;;7.73;6.57;;;13.00;99.90;;;;;;5003356;28;20348;-57
2023/10/09 12:38:50;;;;;;;7.37;6.67;;;13.10;99.90;;;;;;5026400;28;20214;-53
2023/10/09 12:41:19;;;;;;;7.77;6.77;;;13.30;99.90;;;;;;5025648;28;20234;-56
2023/10/09 12:43:48;;;;;;;9.10;6.93;;;13.30;99.90;;;;;;5001981;28;20195;-58
2023/10/09 12:46:17;;;;;;;6.57;5.80;;;13.00;99.90;;;;;;5020582;28;20762;-55
2023/10/09 12:48:46;;;;;;;6.80;6.10;;;13.30;99.90;;;;;;5003918;28;20230;-55
2023/10/09 12:51:16;;;;;;;7.53;6.53;;;13.40;99.90;;;;;;5020246;28;20276;-57
2023/10/09 12:53:45;;;;;;;7.13;6.23;;;13.20;99.90;;;;;;5030596;28;20294;-55
2023/10/09 12:56:12;;;;;;;7.17;6.47;;;13.10;99.90;;;;;;5031982;28;20212;-55
2023/10/09 12:58:38;;;;;;;6.90;6.30;;;13.20;99.90;;;;;;5013493;28;20871;-55
2023/10/09 13:01:11;;;;;;;7.93;6.70;;;13.30;99.90;;;;;;5034206;28;20639;-54
2023/10/09 13:03:40;;;;;;;6.80;5.90;;;13.40;99.90;;;;;;5013817;28;20301;-64
2023/10/09 13:06:11;;;;;;;7.97;7.17;;;13.20;99.90;;;;;;5030700;28;20363;-58
2023/10/09 13:08:40;;;;;;;6.80;6.20;;;13.40;99.90;;;;;;5032682;28;20206;-56
2023/10/09 13:11:10;;;;;;;8.47;7.30;;;13.20;99.90;;;;;;5013904;28;20200;-57
2023/10/09 13:13:40;;;;;;;7.40;6.80;;;13.20;99.90;;;;;;5032411;28;20256;-56
2023/10/09 13:16:27;;;;;;;9.97;7.47;;;13.10;99.90;;;;;;5015931;28;20289;-55
2023/10/09 13:18:56;;;;;;;9.27;8.37;;;13.10;99.90;;;;;;5030984;28;20226;-56
2023/10/09 13:21:31;;;;;;;8.47;7.57;;;12.90;99.90;;;;;;5032758;28;20688;-56
2023/10/09 13:23:57;;;;;;;9.00;8.10;;;12.90;99.90;;;;;;5031992;28;20201;-56
2023/10/09 13:26:34;;;;;;;9.40;8.53;;;13.00;99.90;;;;;;5032629;28;20222;-56
2023/10/09 13:29:01;;;;;;;8.57;7.77;;;13.10;99.90;;;;;;5010639;28;20825;-65
2023/10/09 13:31:27;;;;;;;13.20;6.37;;;13.20;99.90;;;;;;5011971;28;20203;-57
2023/10/09 13:33:56;;;;;;;9.13;8.23;;;13.30;99.90;;;;;;5018432;28;20270;-55
2023/10/09 13:36:31;;;;;;;11.27;8.37;;;13.40;99.90;;;;;;4995213;28;20199;-56
2023/10/09 13:38:58;;;;;;;9.57;8.57;;;13.50;99.90;;;;;;5011658;28;20199;-54
2023/10/09 13:41:29;;;;;;;9.13;7.17;;;13.50;99.90;;;;;;5013755;28;20553;-53
2023/10/09 13:43:56;;;;;;;9.67;8.67;;;13.30;99.90;;;;;;5009169;28;20238;-54
2023/10/09 13:46:23;;;;;;;10.33;8.83;;;13.50;99.90;;;;;;5012659;28;20219;-54
2023/10/09 13:48:49;;;;;;;9.53;8.63;;;14.00;99.90;;;;;;5011861;28;20191;-62
2023/10/09 13:51:18;;;;;;;8.10;7.13;;;13.60;99.90;;;;;;5009784;28;20936;-63
2023/10/09 13:53:45;;;;;;;8.03;6.63;;;14.00;99.90;;;;;;5008821;28;20207;-63
2023/10/09 13:56:27;;;;;;;11.60;8.70;;;14.10;99.90;;;;;;5008675;28;20538;-60
2023/10/09 13:58:54;;;;;;;10.47;7.37;;;14.40;99.90;;;;;;5017411;28;20202;-55
2023/10/09 14:01:26;;;;;;;10.17;9.07;;;14.10;99.90;;;;;;5019270;28;20190;-55
2023/10/09 14:03:56;;;;;;;7.60;6.80;;;14.00;99.90;;;;;;5014081;28;20202;-55
2023/10/09 14:06:30;;;;;;;9.37;8.40;;;13.90;99.90;;;;;;5010274;28;20215;-55
2023/10/09 14:09:09;;;;;;;9.03;8.23;;;13.90;99.90;;;;;;5011469;28;20826;-55
2023/10/09 14:11:39;;;;;;;9.10;8.17;;;13.90;99.90;;;;;;5016005;28;20660;-55
2023/10/09 14:14:09;;;;;;;9.40;8.10;;;13.90;99.90;;;;;;5018616;28;20440;-56
2023/10/09 14:16:36;;;;;;;9.87;8.87;;;13.70;99.90;;;;;;5018617;28;21076;-56
2023/10/09 14:19:06;;;;;;;10.13;7.80;;;14.10;99.90;;;;;;5017106;28;20202;-64
2023/10/09 14:21:37;;;;;;;9.90;7.43;;;13.80;99.90;;;;;;5013686;28;20195;-56
2023/10/09 14:24:16;;;;;;;7.50;6.73;;;13.80;99.90;;;;;;5009868;28;20210;-55
2023/10/09 14:26:45;;;;;;;8.47;7.67;;;13.70;99.90;;;;;;5009320;28;20230;-56
2023/10/09 14:29:14;;;;;;;8.73;7.87;;;13.70;99.90;;;;;;5031521;28;20285;-55
2023/10/09 14:31:40;;;;;;;9.73;8.83;;;13.60;99.90;;;;;;5031849;28;20206;-57
2023/10/09 14:34:09;;;;;;;8.37;7.57;;;13.40;99.90;;;;;;5010887;28;20206;-56
2023/10/09 14:36:34;;;;;;;7.77;7.03;;;13.50;99.90;;;;;;5011494;28;20198;-56
2023/10/09 14:39:01;;;;;;;11.63;9.27;;;13.50;99.90;;;;;;5027964;28;20199;-56
2023/10/09 14:41:27;;;;;;;8.90;7.70;;;13.70;99.90;;;;;;5026497;28;20303;-61
2023/10/09 14:43:54;;;;;;;8.97;8.10;;;13.70;99.90;;;;;;5029276;28;20195;-60
2023/10/09 14:46:26;;;;;;;8.57;7.70;;;13.70;99.90;;;;;;5029834;28;20317;-59
2023/10/09 14:48:55;;;;;;;8.87;8.00;;;13.50;99.90;;;;;;5029238;28;20700;-54
2023/10/09 14:51:29;;;;;;;9.20;8.20;;;13.20;99.90;;;;;;5028835;28;20638;-58
2023/10/09 14:53:57;;;;;;;10.23;8.87;;;13.20;99.90;;;;;;5013017;28;20268;-56
2023/10/09 14:56:29;;;;;;;9.60;8.70;;;13.20;99.90;;;;;;5030893;28;20233;-56
2023/10/09 14:58:58;;;;;;;10.30;9.20;;;13.40;99.90;;;;;;5030792;28;20225;-56
2023/10/09 15:01:25;;;;;;;10.47;9.43;;;13.30;99.90;;;;;;5013255;28;20201;-55
2023/10/09 15:03:56;;;;;;;12.47;9.10;;;13.20;99.90;;;;;;5031025;28;20199;-55
2023/10/09 15:06:24;;;;;;;9.67;8.77;;;12.80;99.90;;;;;;5031316;28;20674;-56
2023/10/09 15:08:50;;;;;;;10.40;9.40;;;13.10;99.90;;;;;;5029918;28;20293;-56
2023/10/09 15:11:15;;;;;;;10.23;9.23;;;13.20;99.90;;;;;;5028993;28;20786;-56
2023/10/09 15:13:41;;;;;;;9.77;8.83;;;13.00;99.90;;;;;;5009222;28;20699;-56
2023/10/09 15:16:06;;;;;;;9.17;8.33;;;13.30;99.90;;;;;;5026025;28;20210;-57
2023/10/09 15:18:33;;;;;;;9.40;8.47;;;13.20;99.90;;;;;;5026699;28;20198;-56
2023/10/09 15:20:59;;;;;;;9.43;8.53;;;13.30;99.90;;;;;;5028828;28;20190;-56
2023/10/09 15:23:26;;;;;;;8.53;7.73;;;13.20;99.90;;;;;;5031036;28;20189;-56